createdAt,value
2018-05-18T00:02:24.324Z,13.4
2018-05-18T00:07:24.118Z,13.3
2018-05-18T00:12:24.284Z,13.3
2018-05-18T00:17:27.444Z,13.2
2018-05-18T00:22:27.221Z,13.1
2018-05-18T00:27:39.819Z,13
2018-05-18T00:32:39.673Z,12.9
2018-05-18T00:37:39.533Z,12.9
2018-05-18T00:42:39.756Z,12.8
2018-05-18T00:47:39.554Z,12.9
2018-05-18T00:52:39.560Z,12.9
2018-05-18T00:57:39.745Z,12.9
2018-05-18T01:02:40.130Z,12.9
2018-05-18T01:07:40.012Z,13
2018-05-18T01:12:52.438Z,13.1
2018-05-18T01:17:52.243Z,13
2018-05-18T01:22:52.158Z,13
2018-05-18T01:27:52.343Z,13
2018-05-18T01:32:52.300Z,13
2018-05-18T01:37:52.300Z,13
2018-05-18T01:42:52.340Z,12.9
2018-05-18T01:47:52.394Z,12.8
2018-05-18T01:52:52.611Z,12.7
2018-05-18T01:58:04.829Z,12.7
2018-05-18T02:03:04.762Z,12.7
2018-05-18T02:08:04.537Z,12.6
2018-05-18T02:13:04.735Z,12.6
2018-05-18T02:18:04.844Z,12.5
2018-05-18T02:23:04.737Z,12.5
2018-05-18T02:28:04.910Z,12.6
2018-05-18T02:33:05.110Z,12.6
2018-05-18T02:38:05.000Z,12.6
2018-05-18T02:43:17.310Z,12.6
2018-05-18T02:48:17.146Z,12.6
2018-05-18T02:53:17.182Z,12.6
2018-05-18T02:58:17.224Z,12.6
2018-05-18T03:03:17.775Z,12.6
2018-05-18T03:08:17.045Z,12.6
2018-05-18T03:13:17.222Z,12.6
2018-05-18T03:18:17.056Z,12.6
2018-05-18T03:23:17.181Z,12.6
2018-05-18T03:28:19.894Z,12.6
2018-05-18T03:33:17.202Z,12.6
2018-05-18T03:38:17.389Z,12.6
2018-05-18T03:43:20.209Z,12.6
2018-05-18T03:48:20.120Z,12.7
2018-05-18T03:53:35.413Z,12.7
2018-05-18T03:58:35.236Z,12.8
2018-05-18T04:03:35.289Z,12.8
2018-05-18T04:08:35.160Z,12.8
2018-05-18T04:13:35.264Z,12.9
2018-05-18T04:18:35.276Z,12.9
2018-05-18T04:23:35.154Z,12.9
2018-05-18T04:28:39.259Z,13
2018-05-18T04:33:38.996Z,13
2018-05-18T04:38:51.345Z,13
2018-05-18T04:43:51.190Z,13.1
2018-05-18T04:48:51.090Z,13.1
2018-05-18T04:53:51.091Z,13.1
2018-05-18T04:58:51.244Z,13.1
2018-05-18T05:03:51.235Z,13.1
2018-05-18T05:08:51.082Z,13.2
2018-05-18T05:13:51.135Z,13.1
2018-05-18T05:18:51.124Z,13.2
2018-05-18T05:24:03.244Z,13.2
2018-05-18T05:29:03.210Z,13.3
2018-05-18T05:34:02.974Z,13.3
2018-05-18T05:39:02.975Z,13.3
2018-05-18T05:44:03.045Z,13.4
2018-05-18T05:49:02.979Z,13.4
2018-05-18T05:54:03.169Z,13.5
2018-05-18T05:59:03.824Z,13.6
2018-05-18T06:04:03.730Z,13.7
2018-05-18T06:09:17.799Z,13.7
2018-05-18T06:14:17.747Z,13.9
2018-05-18T06:19:17.779Z,13.9
2018-05-18T06:24:17.708Z,14
2018-05-18T06:29:17.736Z,14.1
2018-05-18T06:34:17.764Z,14.2
2018-05-18T06:39:17.687Z,14.4
2018-05-18T06:44:18.263Z,14.5
2018-05-18T06:49:18.181Z,14.7
2018-05-18T06:54:30.807Z,14.9
2018-05-18T06:59:30.639Z,15
2018-05-18T07:04:30.652Z,15.2
2018-05-18T07:09:30.686Z,15.4
2018-05-18T07:14:30.531Z,15.5
2018-05-18T07:19:30.674Z,15.5
2018-05-18T07:24:30.693Z,15.6
2018-05-18T07:29:30.860Z,15.7
2018-05-18T07:34:30.784Z,15.9
2018-05-18T07:39:42.847Z,15.8
2018-05-18T07:44:42.569Z,15.9
2018-05-18T07:49:42.737Z,16
2018-05-18T07:54:42.963Z,15.8
2018-05-18T07:59:42.803Z,15.7
2018-05-18T08:04:42.846Z,15.8
2018-05-18T08:09:42.883Z,15.8
2018-05-18T08:14:43.323Z,15.9
2018-05-18T08:19:43.123Z,15.9
2018-05-18T08:24:57.343Z,16
2018-05-18T08:29:57.227Z,16.1
2018-05-18T08:34:57.182Z,16.4
2018-05-18T08:39:57.216Z,16.2
2018-05-18T08:44:57.249Z,16.4
2018-05-18T08:49:57.174Z,16.5
2018-05-18T08:54:57.216Z,16.8
2018-05-18T08:59:59.106Z,16.8
2018-05-18T09:04:59.029Z,16.6
2018-05-18T09:10:11.574Z,16.7
2018-05-18T09:15:11.477Z,17
2018-05-18T09:20:11.491Z,17.5
2018-05-18T09:25:11.325Z,18.2
2018-05-18T09:30:11.332Z,18.3
2018-05-18T09:35:11.348Z,18.3
2018-05-18T09:40:11.542Z,18.1
2018-05-18T09:45:13.740Z,18
2018-05-18T09:50:13.593Z,17.6
2018-05-18T09:55:27.000Z,17.8
2018-05-18T10:00:27.854Z,17.6
2018-05-18T10:05:27.985Z,18.2
2018-05-18T10:10:28.064Z,18.5
2018-05-18T10:15:28.141Z,18.3
2018-05-18T10:20:27.991Z,18.5
2018-05-18T10:25:28.034Z,19
2018-05-18T10:30:29.308Z,19.4
2018-05-18T10:35:29.254Z,20
2018-05-18T10:40:41.376Z,20
2018-05-18T10:45:41.108Z,19.8
2018-05-18T10:50:41.308Z,19.7
2018-05-18T10:55:41.111Z,19.6
2018-05-18T11:00:41.263Z,19.2
2018-05-18T11:05:41.477Z,18.7
2018-05-18T11:10:41.648Z,18.9
2018-05-18T11:15:44.341Z,19.4
2018-05-18T11:20:44.176Z,19.8
2018-05-18T11:25:56.823Z,19.9
2018-05-18T11:30:56.736Z,20.2
2018-05-18T11:35:56.581Z,20.2
2018-05-18T11:40:56.722Z,20.4
2018-05-18T11:45:56.783Z,20.1
2018-05-18T11:50:56.574Z,20.5
2018-05-18T11:55:56.580Z,21.2
2018-05-18T12:00:57.636Z,21.4
2018-05-18T12:05:57.644Z,21.9
2018-05-18T12:11:10.634Z,21.1
2018-05-18T12:16:10.126Z,21.9
2018-05-18T12:21:10.413Z,22.3
2018-05-18T12:26:10.524Z,22.3
2018-05-18T12:31:10.437Z,22
2018-05-18T12:36:10.377Z,22.6
2018-05-18T12:41:10.204Z,22.4
2018-05-18T12:46:10.805Z,21.8
2018-05-18T12:51:10.780Z,22.4
2018-05-18T12:56:23.534Z,22
2018-05-18T13:01:23.288Z,22
2018-05-18T13:06:23.271Z,21.8
2018-05-18T13:11:23.419Z,22.4
2018-05-18T13:16:26.209Z,22.4
2018-05-18T13:21:23.294Z,22.5
2018-05-18T13:26:23.415Z,22.7
2018-05-18T13:31:23.459Z,22.7
2018-05-18T13:36:23.489Z,22.3
2018-05-18T13:41:23.538Z,22.5
2018-05-18T13:46:23.403Z,22
2018-05-18T13:51:23.295Z,22.1
2018-05-18T13:56:23.767Z,22.3
2018-05-18T14:01:23.669Z,22.1
2018-05-18T14:06:36.486Z,22.5
2018-05-18T14:11:36.425Z,21.5
2018-05-18T14:16:36.347Z,21.7
2018-05-18T14:21:36.235Z,21.3
2018-05-18T14:26:36.420Z,20.8
2018-05-18T14:31:36.462Z,20.9
2018-05-18T14:36:36.393Z,21.4
2018-05-18T14:41:36.994Z,21.6
2018-05-18T14:46:36.716Z,21.6
2018-05-18T14:51:49.129Z,22.1
2018-05-18T14:56:48.764Z,21.9
2018-05-18T15:01:48.745Z,20.2
2018-05-18T15:06:48.766Z,19.6
2018-05-18T15:11:48.767Z,20
2018-05-18T15:16:48.772Z,19.6
2018-05-18T15:21:49.007Z,19.2
2018-05-18T15:26:51.505Z,19.3
2018-05-18T15:31:51.216Z,18.9
2018-05-18T15:37:04.624Z,19.6
2018-05-18T15:42:04.601Z,19.6
2018-05-18T15:47:04.511Z,19
2018-05-18T15:52:04.557Z,18.7
2018-05-18T15:57:04.536Z,18.6
2018-05-18T16:02:04.365Z,18.7
2018-05-18T16:07:04.548Z,18.4
2018-05-18T16:12:05.904Z,17.7
2018-05-18T16:17:05.850Z,17.9
2018-05-18T16:22:18.259Z,18.1
2018-05-18T16:27:17.978Z,18
2018-05-18T16:32:17.991Z,18.2
2018-05-18T16:37:17.995Z,17.9
2018-05-18T16:42:17.994Z,17.8
2018-05-18T16:47:18.010Z,17.6
2018-05-18T16:52:18.015Z,17.5
2018-05-18T16:57:18.011Z,17.6
2018-05-18T17:02:17.968Z,17.7
2018-05-18T17:07:18.013Z,17.7
2018-05-18T17:12:18.009Z,17.4
2018-05-18T17:17:21.009Z,17.4
2018-05-18T17:22:19.215Z,17.4
2018-05-18T17:27:18.942Z,17.6
2018-05-18T17:32:30.018Z,17.5
2018-05-18T17:37:29.758Z,17.6
2018-05-18T17:42:29.755Z,17.6
2018-05-18T17:47:29.765Z,17.5
2018-05-18T17:52:29.796Z,17.5
2018-05-18T17:57:29.740Z,17.5
2018-05-18T18:02:29.801Z,17.5
2018-05-18T18:07:29.810Z,17.5
2018-05-18T18:12:29.711Z,17.4
2018-05-18T18:17:41.650Z,17.3
2018-05-18T18:22:41.320Z,17.2
2018-05-18T18:27:41.349Z,17.2
2018-05-18T18:32:41.379Z,17.2
2018-05-18T18:37:41.608Z,16.9
2018-05-18T18:42:41.610Z,16.9
2018-05-18T18:47:41.618Z,16.9
2018-05-18T18:52:41.601Z,16.9
2018-05-18T18:57:41.629Z,16.7
2018-05-18T19:02:55.161Z,16.7
2018-05-18T19:07:54.918Z,16.7
2018-05-18T19:12:54.885Z,16.4
2018-05-18T19:17:54.911Z,16.4
2018-05-18T19:22:54.830Z,16.4
2018-05-18T19:27:54.915Z,16.3
2018-05-18T19:32:55.047Z,16.3
2018-05-18T19:37:55.264Z,16
2018-05-18T19:42:54.935Z,16
2018-05-18T19:48:07.619Z,15.9
2018-05-18T19:53:09.104Z,15.9
2018-05-18T19:58:07.343Z,15.8
2018-05-18T20:03:08.703Z,15.7
2018-05-18T20:08:07.327Z,15.6
2018-05-18T20:13:07.369Z,15.7
2018-05-18T20:18:07.361Z,15.7
2018-05-18T20:23:07.361Z,15.5
2018-05-18T20:28:07.675Z,15.5
2018-05-18T20:33:19.423Z,15.3
2018-05-18T20:38:19.176Z,15.4
2018-05-18T20:43:19.162Z,15.4
2018-05-18T20:48:19.152Z,15.3
2018-05-18T20:53:19.200Z,15.2
2018-05-18T20:58:19.176Z,15.3
2018-05-18T21:03:19.169Z,15.3
2018-05-18T21:08:22.267Z,15.2
2018-05-18T21:13:21.931Z,15.2
2018-05-18T21:18:34.248Z,15.1
2018-05-18T21:23:33.876Z,14.9
2018-05-18T21:28:33.873Z,14.7
2018-05-18T21:33:33.889Z,14.9
2018-05-18T21:38:33.898Z,14.8
2018-05-18T21:43:33.898Z,14.7
2018-05-18T21:48:33.883Z,14.8
2018-05-18T21:53:34.954Z,14.7
2018-05-18T21:58:34.710Z,14.6
2018-05-18T22:03:46.962Z,14.4
2018-05-18T22:08:46.683Z,14.4
2018-05-18T22:13:46.686Z,14.5
2018-05-18T22:18:46.680Z,14.6
2018-05-18T22:23:46.811Z,14.5
2018-05-18T22:28:46.813Z,14.5
2018-05-18T22:33:47.017Z,14.5
2018-05-18T22:38:46.816Z,14.4
2018-05-18T22:43:46.814Z,14.5
2018-05-18T22:48:59.213Z,14.4
2018-05-18T22:53:58.936Z,14.3
2018-05-18T22:58:58.925Z,14.4
2018-05-18T23:03:59.091Z,14.3
2018-05-18T23:08:58.944Z,14.3
2018-05-18T23:13:58.938Z,14
2018-05-18T23:18:58.950Z,14
2018-05-18T23:23:58.955Z,14.1
2018-05-18T23:28:58.958Z,14.1
2018-05-18T23:34:14.009Z,14.2
2018-05-18T23:39:13.872Z,14.1
2018-05-18T23:44:13.744Z,14.1
2018-05-18T23:49:13.692Z,14.1
2018-05-18T23:54:13.722Z,14.1
2018-05-18T23:59:13.915Z,14.1
